Terminal Aerodrome Forecast
Issued by NWS

Home | Current Version | Previous Version | Text Only | Print | Product List | Glossary On
Versions: 1 2 3 4 5 6 7 8 9 10 11 12 13 14 15 16 17 18
000
FTUS44 KLIX 022300
TAFGPT
TAF
KGPT 022332Z 0300/0324 12005KT 1/4SM FG VV002
      TEMPO 0300/0304 1/2SM FG
     FM031500 14007KT 3SM BR BKN003
     FM031800 15008KT P6SM BKN008
     FM032100 15010KT P6SM BKN008=

USA.gov is the U.S. government's official web portal to all federal, state and local government web resources and services.